Latest Weather Observations for Parkes Airport

IDN60801

Issued at 1:37 am EDT Monday 26 October 2020 (issued every 10 minutes, with the page automatically refreshed every 10 minutes)

About weather observations | Map of weather stations | Latest weather observations for NSW | Other Formats
Station Details ID: 065068 Name: PARKES AIRPORT AWS Lat: -33.13 Lon: 148.24 Height: 323.3 m
Data from the previous 72 hours. | See also: Recent months at Parkes Airport
Date/Time
EDT
Temp
°C
App
Temp
°C
Dew
Point
°C
Rel
Hum
%
Delta-T
°C
Wind Press
QNH
hPa
Press
MSL
hPa
Rain since
9am
mm
Dir  Spd
km/h
Gust
km/h
Spd
kts
Gust
kts
26/01:30am 11.7 10.5 10.4 92 0.7 SSE 7 11 4 6 1014.4 1013.8 10.4
26/01:00am 11.8 10.8 10.4 91 0.7 SSE 6 9 3 5 1014.7 1014.1 9.6
26/12:30am 11.8 12.0 10.7 93 0.6 CALM 0 6 0 3 1014.9 1014.3 9.2
26/12:00am 12.1 12.4 10.8 92 0.7 CALM 0 6 0 3 1015.0 1014.4 8.8
 
Date/Time
EDT
Temp
°C
App
Temp
°C
Dew
Point
°C
Rel
Hum
%
Delta-T
°C
Wind Press
QNH
hPa
Press
MSL
hPa
Rain since
9am
mm
Dir  Spd
km/h
Gust
km/h
Spd
kts
Gust
kts
25/11:30pm 12.2 11.1 10.8 91 0.7 SSE 7 13 4 7 1015.1 1014.5 8.4
25/11:00pm 12.2 10.4 10.8 91 0.7 ESE 11 15 6 8 1015.0 1014.4 8.4
25/10:30pm 12.2 11.3 11.4 95 0.4 SE 7 13 4 7 1015.0 1014.4 8.4
25/10:13pm 12.4 11.3 11.8 96 0.3 SSE 9 13 5 7 1015.0 1014.4 8.4
25/10:00pm 12.5 10.9 11.7 95 0.4 SSE 11 15 6 8 1015.0 1014.4 8.4
25/09:41pm 12.6 10.9 12.3 98 0.2 S 13 17 7 9 1014.8 1014.2 8.4
25/09:30pm 12.4 10.9 11.9 97 0.3 SSE 11 17 6 9 1014.7 1014.1 8.4
25/09:00pm 12.5 9.8 11.6 94 0.5 ESE 17 24 9 13 1014.7 1014.1 7.4
25/08:30pm 12.7 10.5 12.1 96 0.3 E 15 22 8 12 1014.7 1014.1 6.6
25/08:17pm 12.6 9.5 12.1 97 0.3 ENE 20 26 11 14 1014.5 1013.9 6.6
25/08:00pm 12.7 10.6 12.5 99 0.1 SE 15 20 8 11 1014.4 1013.8 6.2
25/07:50pm 12.7 11.8 12.5 99 0.1 SSE 9 19 5 10 1014.3 1013.7 5.2
25/07:35pm 12.7 13.5 12.5 99 0.1 CALM 0 7 0 4 1013.9 1013.3 4.8
25/07:30pm 12.7 13.5 12.5 99 0.1 CALM 0 2 0 1 1013.8 1013.2 4.8
25/07:00pm 12.7 11.4 12.5 99 0.1 SSE 11 13 6 7 1013.3 1012.7 4.6
25/06:30pm 13.1 11.2 12.9 99 0.1 SSE 15 20 8 11 1012.9 1012.3 4.0
25/06:22pm 13.2 11.3 13.0 99 0.1 SSE 15 20 8 11 1013.0 1012.4 3.8
25/06:12pm 13.6 11.4 13.4 99 0.1 SSE 17 22 9 12 1012.8 1012.2 3.2
25/06:00pm 13.2 12.1 13.0 99 0.1 S 11 22 6 12 1012.6 1012.0 2.8
25/05:30pm 13.5 12.1 13.3 99 0.1 SW 13 17 7 9 1012.5 1011.9 0.6
25/05:00pm 13.8 13.6 13.5 98 0.2 S 7 11 4 6 1012.2 1011.6 0.4
25/04:51pm 13.7 13.1 13.4 98 0.2 SSW 9 13 5 7 1012.2 1011.6 0.4
25/04:30pm 13.7 12.6 13.1 96 0.3 SSW 11 13 6 7 1012.1 1011.5 0.2
25/04:02pm 13.8 12.0 12.0 89 1.0 S 13 17 7 9 1012.2 1011.6 0.0
25/04:00pm 13.8 11.6 12.0 89 1.0 S 15 20 8 11 1012.2 1011.6 0.0
25/03:30pm 15.1 12.6 10.9 76 2.3 S 15 19 8 10 1012.0 1011.4 0.0
25/03:00pm 15.3 13.0 10.5 73 2.6 S 13 19 7 10 1012.1 1011.5 0.0
25/02:30pm 15.6 12.5 10.4 71 2.8 SSE 17 24 9 13 1011.9 1011.3 0.0
25/02:00pm 16.6 13.4 11.3 71 2.9 S 19 24 10 13 1011.9 1011.3 0.0
25/01:30pm 15.9 13.3 10.7 71 2.8 S 15 22 8 12 1012.0 1011.4 0.0
25/01:18pm 15.5 13.2 10.5 72 2.7 SSW 13 19 7 10 1012.1 1011.5 0.0
25/01:00pm 14.7 11.8 9.7 72 2.6 S 15 20 8 11 1012.2 1011.6 0.0
25/12:30pm 13.6 10.7 9.5 76 2.1 S 15 20 8 11 1012.5 1011.9 0.0
25/12:00pm 12.8 9.4 9.1 78 1.9 SW 17 22 9 12 1012.7 1012.1 0.0
25/11:30am 12.6 9.3 9.6 82 1.6 SW 17 22 9 12 1012.8 1012.2 0.0
25/11:00am 11.8 8.3 8.8 82 1.5 SSW 17 20 9 11 1012.9 1012.3 0.0
25/10:30am 11.7 8.9 8.7 82 1.5 SSW 13 17 7 9 1012.6 1012.0 0.0
25/10:00am 11.2 8.0 8.4 83 1.4 SSW 15 20 8 11 1012.5 1011.9 0.0
25/09:30am 10.8 7.2 8.4 85 1.2 SW 17 22 9 12 1012.3 1011.7 0.0
25/09:00am 10.6 6.6 8.2 85 1.2 SSW 19 22 10 12 1011.9 1011.3 17.6
25/08:30am 10.1 6.0 7.9 86 1.1 SW 19 22 10 12 1011.9 1011.3 17.6
25/08:00am 10.2 6.2 8.1 87 1.0 SSW 19 22 10 12 1011.7 1011.1 17.6
25/07:30am 10.2 7.0 8.6 90 0.8 SSW 15 19 8 10 1011.2 1010.5 17.6
25/07:00am 10.1 5.9 8.4 89 0.8 SSW 20 28 11 15 1010.6 1010.0 17.6
25/06:30am 10.4 7.0 9.0 91 0.7 SSW 17 22 9 12 1010.3 1009.7 17.6
25/06:00am 10.3 7.2 8.9 91 0.7 SW 15 20 8 11 1010.1 1009.5 17.6
25/05:30am 10.4 7.7 9.0 91 0.7 SW 13 17 7 9 1009.6 1009.0 17.6
25/05:00am 10.4 7.3 8.7 89 0.9 SW 15 20 8 11 1009.4 1008.8 17.6
25/04:30am 10.4 7.3 8.7 89 0.9 SW 15 19 8 10 1009.3 1008.7 17.6
25/04:02am 10.6 7.1 8.7 88 1.0 SW 17 22 9 12 1008.9 1008.3 17.6
25/04:00am 10.6 7.1 8.9 89 0.9 SW 17 22 9 12 1008.9 1008.3 17.6
25/03:30am 10.8 7.0 9.1 89 0.9 SW 19 24 10 13 1008.4 1007.7 17.6
25/03:00am 11.2 7.9 9.5 89 0.9 SW 17 20 9 11 1008.4 1007.7 17.6
25/02:41am 11.3 7.6 9.6 89 0.9 SW 19 24 10 13 1008.4 1007.7 17.6
25/02:30am 11.4 8.2 9.8 90 0.8 SW 17 20 9 11 1008.3 1007.6 17.6
25/02:00am 11.8 9.0 10.0 89 0.9 SSW 15 19 8 10 1008.3 1007.6 17.6
25/01:30am 12.0 7.7 10.6 91 0.7 SSW 24 32 13 17 1008.5 1007.8 17.6
25/01:00am 12.3 8.3 11.7 96 0.3 SW 24 33 13 18 1008.4 1007.7 17.6
25/12:30am 12.8 8.6 12.3 97 0.3 SW 26 35 14 19 1008.1 1007.4 17.6
25/12:00am 14.1 10.7 13.8 98 0.2 SW 24 33 13 18 1007.9 1007.2 17.6
 
Date/Time
EDT
Temp
°C
App
Temp
°C
Dew
Point
°C
Rel
Hum
%
Delta-T
°C
Wind Press
QNH
hPa
Press
MSL
hPa
Rain since
9am
mm
Dir  Spd
km/h
Gust
km/h
Spd
kts
Gust
kts
24/11:30pm 15.5 13.4 15.3 99 0.1 SSW 20 28 11 15 1007.6 1006.9 17.6
24/11:00pm 16.1 14.3 15.9 99 0.1 SSW 20 28 11 15 1007.6 1006.9 17.6
24/10:30pm 15.7 16.4 15.5 99 0.1 ESE 6 9 3 5 1007.6 1006.9 16.6
24/10:00pm 15.5 15.9 15.3 99 0.1 NE 7 11 4 6 1007.3 1006.7 16.2
24/09:30pm 15.5 15.9 15.3 99 0.1 NW 7 11 4 6 1007.0 1006.4 15.0
24/09:18pm 15.4 16.0 15.2 99 0.1 SW 6 9 3 5 1006.8 1006.2 14.6
24/09:00pm 15.0 14.5 14.8 99 0.1 W 11 15 6 8 1006.6 1006.0 13.8
24/08:56pm 15.0 14.1 14.8 99 0.1 W 13 17 7 9 1006.4 1005.8 12.8
24/08:50pm 15.0 15.2 14.8 99 0.1 N 7 17 4 9 1006.3 1005.7 9.6
24/08:30pm 14.7 14.1 14.5 99 0.1 NE 11 15 6 8 1005.1 1004.4 7.8
24/08:00pm 14.5 12.6 14.2 98 0.2 N 17 22 9 12 1004.7 1004.0 6.6
24/07:30pm 14.4 11.6 13.1 92 0.7 NNW 20 32 11 17 1004.4 1003.7 5.0
24/07:18pm 14.5 10.5 12.9 90 0.9 NNW 26 37 14 20 1003.9 1003.3 4.4
24/07:00pm 15.8 12.7 13.5 86 1.3 W 22 33 12 18 1004.5 1003.8 1.2
24/06:40pm 18.6 16.5 13.5 72 2.9 WNW 17 44 9 24 1004.0 1003.4 1.0
24/06:30pm 20.0 20.7 17.0 83 1.8 N 9 15 5 8 1003.2 1002.5 1.0
24/06:00pm 20.5 19.6 16.9 80 2.2 NNE 17 22 9 12 1002.4 1001.7 1.0
24/05:30pm 20.9 20.9 17.3 80 2.2 NNE 13 17 7 9 1002.4 1001.7 1.0
24/05:00pm 21.4 21.3 17.0 76 2.7 N 13 20 7 11 1002.6 1001.9 1.0
24/04:30pm 21.9 21.7 17.5 76 2.8 NNW 15 20 8 11 1002.5 1001.8 1.0
24/04:00pm 21.0 20.2 17.0 78 2.5 NNW 17 24 9 13 1002.7 1002.0 1.0
24/03:30pm 21.0 19.5 16.4 75 2.8 NW 19 24 10 13 1003.3 1002.7 1.0
24/03:00pm 21.2 20.4 17.0 77 2.6 NW 17 22 9 12 1003.6 1003.0 1.0
24/02:30pm 20.1 20.6 18.4 90 1.1 NNW 13 20 7 11 1004.0 1003.4 1.0
24/02:00pm 19.7 19.7 18.2 91 0.9 NNW 15 20 8 11 1004.1 1003.5 1.0
24/01:48pm 19.3 19.3 18.0 92 0.8 NNW 15 20 8 11 1004.1 1003.5 1.0
24/01:31pm 19.3 18.4 18.1 93 0.8 N 20 30 11 16 1004.1 1003.5 1.0
24/01:30pm 19.4 18.5 18.1 92 0.8 NNW 20 30 11 16 1004.4 1003.7 1.0
24/01:00pm 21.3 20.4 18.1 82 2.0 N 20 28 11 15 1004.8 1004.1 0.0
24/12:30pm 21.1 20.0 17.7 81 2.1 NNW 20 28 11 15 1005.3 1004.6 0.0
24/12:04pm 21.2 19.3 17.6 80 2.2 NNW 24 33 13 18 1005.7 1005.0 0.0
24/12:00pm 21.4 19.6 17.8 80 2.3 NNW 24 33 13 18 1005.8 1005.1 0.0
24/11:30am 21.1 20.3 18.5 85 1.6 N 20 30 11 16 1006.0 1005.4 0.0
24/11:00am 20.4 18.3 18.0 86 1.5 N 26 35 14 19 1006.2 1005.6 0.0
24/10:30am 19.8 18.2 18.3 91 0.9 N 24 37 13 20 1006.4 1005.8 0.0
24/10:00am 19.3 18.4 18.3 94 0.6 N 20 26 11 14 1006.6 1006.0 0.0
24/09:30am 18.9 18.7 18.4 97 0.3 N 17 24 9 13 1006.4 1005.8 0.0
24/09:21am 18.5 18.2 18.2 98 0.2 N 17 24 9 13 1006.2 1005.6 0.0
24/09:00am 18.1 17.6 17.9 99 0.1 NNE 17 24 9 13 1006.0 1005.4 35.4
24/08:30am 17.8 17.1 17.3 97 0.3 NNE 17 22 9 12 1006.0 1005.4 35.2
24/08:00am 18.0 17.1 16.9 93 0.7 N 17 24 9 13 1006.5 1005.9 34.8
24/07:30am 18.4 17.3 16.4 88 1.2 NNE 17 24 9 13 1006.1 1005.5 34.4
24/07:00am 18.0 16.3 16.2 89 1.1 NNE 20 30 11 16 1005.9 1005.2 34.4
24/06:30am 17.7 16.4 15.7 88 1.2 NNE 17 24 9 13 1005.5 1004.8 34.4
24/06:00am 17.3 16.3 15.6 90 1.0 NNE 15 19 8 10 1005.1 1004.4 34.4
24/05:30am 17.9 16.3 16.1 89 1.1 N 19 22 10 12 1005.1 1004.4 34.4
24/05:00am 17.9 16.7 16.2 90 1.0 N 17 22 9 12 1005.1 1004.4 34.4
24/04:30am 17.9 16.7 16.1 89 1.1 NNE 17 20 9 11 1005.4 1004.7 34.4
24/04:00am 18.0 17.2 16.2 89 1.1 NNE 15 19 8 10 1005.5 1004.8 34.4
24/03:30am 17.8 17.4 16.3 91 0.9 N 13 19 7 10 1005.8 1005.1 34.4
24/03:00am 17.9 17.2 16.4 91 0.9 NNE 15 20 8 11 1005.9 1005.2 34.4
24/02:30am 18.3 16.9 16.6 90 1.0 NNE 19 24 10 13 1006.4 1005.8 34.4
24/02:00am 18.4 17.1 16.9 91 0.9 NNE 19 26 10 14 1006.9 1006.3 34.4
24/01:30am 18.1 16.7 17.1 94 0.6 NNE 20 30 11 16 1007.6 1006.9 34.4
24/01:00am 18.0 17.0 17.5 97 0.3 NE 19 28 10 15 1008.2 1007.5 34.4
24/12:30am 17.4 16.3 17.2 99 0.1 ENE 19 22 10 12 1008.1 1007.4 34.4
24/12:00am 17.0 15.7 16.8 99 0.1 NE 19 26 10 14 1008.4 1007.7 34.0
 
Date/Time
EDT
Temp
°C
App
Temp
°C
Dew
Point
°C
Rel
Hum
%
Delta-T
°C
Wind Press
QNH
hPa
Press
MSL
hPa
Rain since
9am
mm
Dir  Spd
km/h
Gust
km/h
Spd
kts
Gust
kts
23/11:40pm 16.8 16.6 16.6 99 0.1 ENE 13 20 7 11 1008.1 1007.4 34.0
23/11:30pm 16.8 16.2 16.6 99 0.1 NE 15 19 8 10 1008.4 1007.7 33.8
23/11:12pm 17.0 17.2 16.8 99 0.1 WNW 11 24 6 13 1010.2 1009.6 21.8
23/11:00pm 17.2 17.9 17.0 99 0.1 ENE 9 19 5 10 1009.0 1008.4 17.4
23/10:30pm 17.2 15.8 17.0 99 0.1 ENE 20 26 11 14 1008.2 1007.5 15.6
23/10:00pm 17.1 15.7 16.9 99 0.1 ENE 20 28 11 15 1009.1 1008.5 12.8
23/09:50pm 16.9 15.4 16.7 99 0.1 ESE 20 26 11 14 1008.3 1007.6 12.6
23/09:30pm 16.8 15.8 16.6 99 0.1 SW 17 24 9 13 1008.7 1008.1 11.8
23/09:16pm 17.2 14.0 16.4 95 0.5 SW 28 41 15 22 1008.9 1008.3 3.8
23/09:00pm 18.8 14.7 15.9 83 1.7 WSW 32 44 17 24 1008.3 1007.6 1.0
23/08:49pm 18.8 17.0 16.0 84 1.7 W 20 39 11 21 1007.6 1006.9 1.0
23/08:30pm 18.3 17.7 15.7 85 1.6 E 13 17 7 9 1006.4 1005.8 1.0
23/08:00pm 17.9 17.9 16.2 90 1.0 E 11 15 6 8 1006.6 1006.0 1.0
23/07:30pm 17.7 18.8 15.7 88 1.2 ENE 4 11 2 6 1007.0 1006.4 1.0
23/07:00pm 18.5 18.5 16.3 87 1.3 ESE 11 15 6 8 1007.2 1006.6 1.0
23/06:30pm 19.1 18.5 16.7 86 1.5 SSW 15 22 8 12 1007.1 1006.5 1.0
23/06:00pm 19.8 17.7 16.3 80 2.1 WSW 22 43 12 23 1008.0 1007.3 1.0
23/05:30pm 22.2 21.7 15.8 67 3.9 E 13 15 7 8 1006.9 1006.3 0.4
23/05:00pm 22.6 22.4 16.6 69 3.7 SE 13 19 7 10 1006.7 1006.1 0.4
23/04:30pm 20.5 19.2 16.9 80 2.2 S 19 24 10 13 1007.1 1006.5 0.4
23/04:00pm 19.5 16.3 15.2 76 2.6 W 26 44 14 24 1007.7 1007.0 0.4
23/03:52pm 22.3 19.9 13.9 59 5.0 NNW 19 32 10 17 1008.1 1007.4 0.0
23/03:30pm 27.3 23.9 12.5 40 8.7 NNE 22 32 12 17 1007.6 1006.9 0.0
23/03:00pm 28.1 23.9 11.2 35 9.8 N 24 35 13 19 1008.2 1007.5 0.0
23/02:30pm 29.2 25.2 11.7 34 10.3 N 24 37 13 20 1008.8 1008.2 0.0
23/02:00pm 28.6 24.2 11.6 34 10.0 N 26 37 14 20 1009.6 1009.0 0.0
23/01:30pm 28.1 23.5 11.2 35 9.8 NNE 26 43 14 23 1009.8 1009.2 0.0
23/01:00pm 27.7 24.2 12.1 38 9.2 NNE 22 35 12 19 1010.3 1009.7 0.0
23/12:30pm 27.8 24.9 14.1 43 8.3 N 22 32 12 17 1011.1 1010.4 0.0
23/12:00pm 27.0 22.9 13.7 44 8.0 NNE 28 37 15 20 1011.5 1010.9 0.0
23/11:30am 26.7 23.2 14.5 47 7.4 NNE 26 39 14 21 1011.9 1011.3 0.0
23/11:00am 24.3 21.4 14.1 53 6.1 NNE 22 32 12 17 1012.6 1012.0 0.0
23/10:30am 23.1 19.4 13.8 55 5.5 N 26 35 14 19 1012.6 1012.0 0.0
23/10:00am 23.2 19.0 13.4 54 5.8 NNE 28 37 15 20 1012.3 1011.7 0.0
23/09:30am 22.9 19.8 13.4 55 5.6 NNE 22 32 12 17 1012.6 1012.0 0.0
23/09:00am 21.5 17.7 12.4 56 5.2 NNE 24 35 13 19 1012.7 1012.1 0.0
23/08:30am 21.1 17.3 12.3 57 5.0 NNE 24 32 13 17 1012.8 1012.2 0.0
23/08:00am 20.7 16.7 11.9 57 5.0 NNE 24 35 13 19 1012.9 1012.3 0.0
23/07:30am 18.8 18.0 12.8 68 3.4 NE 9 13 5 7 1012.7 1012.1 0.0
23/07:00am 17.2 15.8 12.3 73 2.7 ENE 11 15 6 8 1012.4 1011.8 0.0
23/06:30am 16.2 16.5 10.9 71 2.9 CALM 0 0 0 0 1012.0 1011.4 0.0
23/06:00am 16.6 15.9 11.3 71 2.9 NE 6 9 3 5 1011.7 1011.1 0.0
23/05:30am 17.5 15.1 11.5 68 3.3 ENE 15 20 8 11 1011.5 1010.9 0.0
23/05:00am 17.6 16.0 11.6 68 3.3 NE 11 17 6 9 1011.6 1011.0 0.0
23/04:30am 17.5 15.6 11.8 69 3.2 NE 13 22 7 12 1011.7 1011.1 0.0
23/04:00am 18.1 16.3 12.1 68 3.4 NNE 13 19 7 10 1012.0 1011.4 0.0
23/03:30am 17.9 15.9 11.5 66 3.5 NNE 13 20 7 11 1011.7 1011.1 0.0
23/03:00am 19.1 16.0 11.7 62 4.1 NNE 19 26 10 14 1011.5 1010.9 0.0
23/02:30am 19.6 15.5 11.6 60 4.5 NE 24 32 13 17 1011.4 1010.8 0.0
23/02:00am 20.2 15.4 11.7 58 4.8 NE 28 39 15 21 1011.3 1010.6 0.0

Other formats

Comma delimited format used in spreadsheet applications
http://www.bom.gov.au/fwo/IDN60801/IDN60801.95717.axf

JavaScript Object Notation format (JSON) in row-major order
http://www.bom.gov.au/fwo/IDN60801/IDN60801.95717.json

Data quality

Most of these data are generated automatically and are frequently updated. Quality checks on data are not normally performed. It is possible for incorrect values to appear. Refer to information at About Latest Weather Observations and please check the disclaimer before using these data.